createdAt,value
2022-12-15T00:03:43.785Z,88.11
2022-12-15T00:09:14.085Z,87.98
2022-12-15T00:14:38.586Z,87.86
2022-12-15T00:20:02.911Z,87.95
2022-12-15T00:25:28.652Z,87.68
2022-12-15T00:30:55.061Z,87.59
2022-12-15T00:36:23.292Z,87.81
2022-12-15T00:41:31.134Z,87.83
2022-12-15T00:46:56.071Z,87.70
2022-12-15T00:52:19.740Z,87.46
2022-12-15T00:57:45.328Z,87.57
2022-12-15T01:03:09.265Z,87.44
2022-12-15T01:08:34.412Z,87.46
2022-12-15T01:13:59.639Z,87.60
2022-12-15T01:19:23.421Z,87.77
2022-12-15T01:24:29.975Z,87.50
2022-12-15T01:29:37.759Z,87.12
2022-12-15T01:34:45.495Z,87.16
2022-12-15T01:40:09.379Z,87.62
2022-12-15T01:45:49.354Z,87.11
2022-12-15T01:51:03.963Z,87.50
2022-12-15T01:56:12.928Z,87.39
2022-12-15T02:01:21.111Z,87.59
2022-12-15T02:06:28.884Z,87.37
2022-12-15T02:12:00.902Z,87.10
2022-12-15T02:17:22.767Z,87.13
2022-12-15T02:22:47.723Z,87.35
2022-12-15T02:28:03.711Z,87.11
2022-12-15T02:33:18.968Z,87.00
2022-12-15T02:38:35.330Z,87.04
2022-12-15T02:43:42.323Z,87.13
2022-12-15T02:49:02.905Z,87.08
2022-12-15T02:54:45.500Z,86.61
2022-12-15T02:59:59.517Z,86.94
2022-12-15T03:05:08.982Z,86.74
2022-12-15T03:10:17.418Z,86.66
2022-12-15T03:15:24.223Z,86.89
2022-12-15T03:20:32.298Z,86.92
2022-12-15T03:25:38.663Z,87.17
2022-12-15T03:30:45.734Z,86.80
2022-12-15T03:35:58.432Z,86.84
2022-12-15T03:41:07.562Z,86.95
2022-12-15T03:46:15.430Z,86.81
2022-12-15T03:51:23.651Z,87.07
2022-12-15T03:56:29.881Z,86.66
2022-12-15T04:01:38.001Z,86.62
2022-12-15T04:06:46.512Z,87.08
2022-12-15T04:11:53.014Z,87.04
2022-12-15T04:17:01.496Z,86.60
2022-12-15T04:22:13.716Z,86.69
2022-12-15T04:27:39.980Z,86.84
2022-12-15T04:33:04.215Z,86.47
2022-12-15T04:38:29.384Z,86.81
2022-12-15T04:43:52.812Z,86.89
2022-12-15T04:49:19.538Z,86.67
2022-12-15T04:54:44.419Z,86.58
2022-12-15T05:00:08.159Z,86.13
2022-12-15T05:05:31.882Z,86.02
2022-12-15T05:10:57.250Z,86.35
2022-12-15T05:16:21.477Z,86.70
2022-12-15T05:21:47.125Z,86.43
2022-12-15T05:27:12.270Z,86.42
2022-12-15T05:32:18.873Z,86.33
2022-12-15T05:37:25.807Z,86.02
2022-12-15T05:42:33.614Z,85.71
2022-12-15T05:47:39.757Z,85.50
2022-12-15T05:52:49.531Z,86.02
2022-12-15T05:57:58.031Z,85.70
2022-12-15T06:03:05.016Z,85.88
2022-12-15T06:08:11.763Z,86.61
2022-12-15T06:13:19.616Z,86.61
2022-12-15T06:18:27.200Z,86.56
2022-12-15T06:23:35.446Z,86.11
2022-12-15T06:28:44.109Z,86.57
2022-12-15T06:33:54.655Z,86.70
2022-12-15T06:39:06.951Z,86.42
2022-12-15T06:44:17.641Z,86.66
2022-12-15T06:49:23.988Z,86.33
2022-12-15T06:54:30.538Z,86.79
2022-12-15T06:59:38.456Z,85.99
2022-12-15T07:04:45.333Z,85.57
2022-12-15T07:09:52.114Z,86.29
2022-12-15T07:15:00.149Z,85.64
2022-12-15T07:20:07.873Z,86.60
2022-12-15T07:25:15.598Z,86.05
2022-12-15T07:30:23.617Z,86.60
2022-12-15T07:35:31.359Z,85.68
2022-12-15T07:40:39.195Z,85.61
2022-12-15T07:45:51.377Z,84.71
2022-12-15T07:51:07.553Z,84.88
2022-12-15T07:56:20.193Z,84.35
2022-12-15T08:01:28.928Z,84.21
2022-12-15T08:06:38.063Z,84.38
2022-12-15T08:11:44.747Z,84.52
2022-12-15T08:16:53.145Z,84.16
2022-12-15T08:21:59.763Z,83.84
2022-12-15T08:27:06.495Z,84.12
2022-12-15T08:32:14.762Z,84.22
2022-12-15T08:37:21.148Z,84.20
2022-12-15T08:42:28.047Z,84.05
2022-12-15T08:47:36.026Z,84.08
2022-12-15T08:53:00.695Z,83.98
2022-12-15T08:58:09.374Z,83.79
2022-12-15T09:03:17.280Z,83.82
2022-12-15T09:08:23.799Z,83.61
2022-12-15T09:13:31.273Z,83.49
2022-12-15T09:18:39.838Z,83.14
2022-12-15T09:23:52.274Z,83.24
2022-12-15T09:28:58.971Z,83.24
2022-12-15T09:34:09.818Z,82.65
2022-12-15T09:39:17.369Z,82.67
2022-12-15T09:44:26.403Z,82.87
2022-12-15T09:49:43.586Z,82.91
2022-12-15T09:54:50.009Z,82.55
2022-12-15T10:00:22.035Z,82.81
2022-12-15T10:06:06.912Z,83.02
2022-12-15T10:11:42.074Z,82.76
2022-12-15T10:17:00.459Z,82.76
2022-12-15T10:22:13.540Z,82.59
2022-12-15T10:27:42.828Z,83.05
2022-12-15T10:32:56.392Z,82.69
2022-12-15T10:38:11.623Z,82.79
2022-12-15T10:43:33.008Z,82.86
2022-12-15T10:48:39.880Z,82.94
2022-12-15T10:53:53.094Z,83.14
2022-12-15T10:59:01.591Z,83.00
2022-12-15T11:04:30.704Z,83.18
2022-12-15T11:09:41.051Z,82.84
2022-12-15T11:14:51.138Z,82.22
2022-12-15T11:20:05.631Z,82.33
2022-12-15T11:25:26.561Z,82.46
2022-12-15T11:30:39.865Z,82.42
2022-12-15T11:36:08.057Z,82.61
2022-12-15T11:41:36.770Z,82.77
2022-12-15T11:46:52.086Z,82.60
2022-12-15T11:52:12.034Z,82.58
2022-12-15T11:57:54.624Z,82.80
2022-12-15T12:03:27.015Z,82.31
2022-12-15T12:09:13.517Z,82.41
2022-12-15T12:14:39.779Z,82.54
2022-12-15T12:19:52.712Z,82.65
2022-12-15T12:25:04.904Z,82.43
2022-12-15T12:30:20.098Z,82.32
2022-12-15T12:35:34.781Z,82.61
2022-12-15T12:41:01.995Z,82.10
2022-12-15T12:46:18.063Z,82.32
2022-12-15T12:51:31.642Z,82.09
2022-12-15T12:56:44.354Z,82.20
2022-12-15T13:01:54.011Z,82.38
2022-12-15T13:07:10.243Z,82.51
2022-12-15T13:12:53.923Z,82.65
2022-12-15T13:18:16.438Z,82.64
2022-12-15T13:24:00.322Z,82.99
2022-12-15T13:29:16.350Z,82.97
2022-12-15T13:34:28.131Z,83.10
2022-12-15T13:39:59.354Z,83.73
2022-12-15T13:45:36.895Z,84.32
2022-12-15T13:50:53.678Z,84.27
2022-12-15T13:56:51.051Z,83.92
2022-12-15T14:01:57.714Z,84.57
2022-12-15T14:07:08.918Z,83.94
2022-12-15T14:12:16.672Z,84.56
2022-12-15T14:17:23.892Z,84.59
2022-12-15T14:22:32.892Z,84.51
2022-12-15T14:27:39.378Z,84.57
2022-12-15T14:32:47.864Z,84.32
2022-12-15T14:38:02.298Z,84.12
2022-12-15T14:43:21.431Z,84.54
2022-12-15T14:48:42.544Z,84.24
2022-12-15T14:53:54.356Z,84.83
2022-12-15T14:59:05.111Z,85.32
2022-12-15T15:04:29.526Z,85.28
2022-12-15T15:09:44.560Z,85.56
2022-12-15T15:14:54.845Z,85.47
2022-12-15T15:20:04.341Z,86.06
2022-12-15T15:25:41.506Z,86.15
2022-12-15T15:30:49.966Z,85.58
2022-12-15T15:35:59.635Z,85.81
2022-12-15T15:41:18.588Z,86.03
2022-12-15T15:46:26.035Z,86.00
2022-12-15T15:51:35.912Z,86.32
2022-12-15T15:56:44.370Z,86.05
2022-12-15T16:01:58.122Z,86.18
2022-12-15T16:07:06.315Z,86.32
2022-12-15T16:12:28.255Z,86.06
2022-12-15T16:17:35.051Z,86.02
2022-12-15T16:22:42.825Z,86.20
2022-12-15T16:27:51.209Z,86.02
2022-12-15T16:32:58.675Z,85.93
2022-12-15T16:38:06.514Z,86.26
2022-12-15T16:43:18.197Z,86.22
2022-12-15T16:48:25.470Z,86.03
2022-12-15T16:53:37.651Z,86.05
2022-12-15T16:58:49.072Z,86.01
2022-12-15T17:04:00.544Z,86.30
2022-12-15T17:09:09.057Z,86.28
2022-12-15T17:14:17.554Z,86.13
2022-12-15T17:19:24.970Z,85.96
2022-12-15T17:24:32.140Z,86.24
2022-12-15T17:29:41.703Z,85.98
2022-12-15T17:34:48.848Z,85.90
2022-12-15T17:39:57.503Z,85.59
2022-12-15T17:45:16.764Z,85.36
2022-12-15T17:50:25.575Z,85.78
2022-12-15T17:55:35.282Z,85.42
2022-12-15T18:00:49.061Z,84.97
2022-12-15T18:05:57.075Z,84.57
2022-12-15T18:11:03.780Z,84.52
2022-12-15T18:16:13.583Z,84.83
2022-12-15T18:21:22.569Z,85.25
2022-12-15T18:26:38.235Z,85.25
2022-12-15T18:31:48.799Z,85.21
2022-12-15T18:36:57.602Z,85.24
2022-12-15T18:42:08.535Z,85.01
2022-12-15T18:47:21.819Z,85.10
2022-12-15T18:52:34.674Z,85.27
2022-12-15T18:57:42.362Z,85.14
2022-12-15T19:02:51.841Z,84.94
2022-12-15T19:08:05.078Z,85.35
2022-12-15T19:13:17.498Z,85.37
2022-12-15T19:18:45.574Z,85.35
2022-12-15T19:23:53.737Z,85.26
2022-12-15T19:29:04.073Z,85.48
2022-12-15T19:34:19.887Z,85.41
2022-12-15T19:39:30.647Z,85.26
2022-12-15T19:44:40.318Z,85.35
2022-12-15T19:49:50.409Z,85.84
2022-12-15T19:55:01.312Z,85.56
2022-12-15T20:00:18.423Z,85.61
2022-12-15T20:05:29.364Z,85.26
2022-12-15T20:10:37.887Z,85.04
2022-12-15T20:15:45.946Z,85.61
2022-12-15T20:20:56.220Z,85.20
2022-12-15T20:26:03.804Z,85.55
2022-12-15T20:31:17.119Z,85.42
2022-12-15T20:36:29.100Z,85.23
2022-12-15T20:41:39.132Z,85.20
2022-12-15T20:46:48.720Z,84.77
2022-12-15T20:52:00.547Z,84.27
2022-12-15T20:57:08.472Z,83.22
2022-12-15T21:02:21.836Z,82.35
2022-12-15T21:07:30.292Z,81.54
2022-12-15T21:12:42.345Z,81.61
2022-12-15T21:17:57.340Z,81.16
2022-12-15T21:23:24.539Z,79.17
2022-12-15T21:28:31.012Z,78.98
2022-12-15T21:33:37.740Z,77.48
2022-12-15T21:38:49.219Z,77.91
2022-12-15T21:43:55.954Z,77.54
2022-12-15T21:49:18.672Z,76.87
2022-12-15T21:54:31.450Z,77.11
2022-12-15T21:59:41.923Z,77.43
2022-12-15T22:04:52.062Z,76.97
2022-12-15T22:09:59.946Z,76.94
2022-12-15T22:15:14.732Z,77.75
2022-12-15T22:20:24.467Z,78.26
2022-12-15T22:25:32.648Z,75.78
2022-12-15T22:30:39.541Z,76.35
2022-12-15T22:35:46.134Z,76.38
2022-12-15T22:40:58.955Z,75.11
2022-12-15T22:46:08.319Z,75.96
2022-12-15T22:51:17.649Z,75.04
2022-12-15T22:56:32.376Z,76.63
2022-12-15T23:01:39.432Z,77.45
2022-12-15T23:06:46.540Z,78.60
2022-12-15T23:11:54.287Z,78.24
2022-12-15T23:17:01.352Z,78.97
2022-12-15T23:22:07.906Z,78.96
2022-12-15T23:27:15.937Z,78.86
2022-12-15T23:32:22.283Z,78.35
2022-12-15T23:37:28.733Z,78.84
2022-12-15T23:42:37.446Z,79.35
2022-12-15T23:47:44.153Z,79.73
2022-12-15T23:52:51.767Z,79.81
2022-12-15T23:58:00.594Z,80.69
